Tabor, Iowa
Current Conditions -  °F | °C
As of 6:35 AM on Monday 22 Dec 2014 (Local Time) from KPMV Reporting Station
Moderate Rain Moderate Rain  
Wind Chill: 34°   Ceiling: 300
Heat Index: 41°   Visibility: 2.5mi
Dew Point: 39°   Wind: 12mph
Humidity: 95%   Direction: 140°SE
Pressure: 29.54"   Gusts: NA
Location:  40.9°N, 95.67°W
Report Text: KPMV 221235Z AUTO 14010KT 2 1/2SM RA OVC003 05/04 A2954 RMK AO2 P0001 T00480040
Loading
Personal Weather Stations






























Interactive Weather Map New forecast layout! Learn more

10-Day Weather Forecast

Advertisements
Track Severe Weather on mobile